Terminal Aerodrome Forecast
Issued by NWS

Home | Current Version | Previous Version | Graphics & Text | Print | Product List | Glossary On
Versions: 1 2 3 4 5 6 7 8 9 10 11 12
000
FTUS43 KUNR 311120
TAFGCC
TAF
KGCC 311120Z 3112/0112 32011KT P6SM SCT250
     FM311600 28005KT P6SM SKC
     FM311900 19009KT P6SM SKC
     FM010000 17011KT P6SM SCT250=

USA.gov is the U.S. government's official web portal to all federal, state and local government web resources and services.